sensor_id;sensor_type;location;lat;lon;timestamp;temperature;humidity
44982;DHT22;30716;41.740;-70.400;2022-07-09T00:02:10;22.90;52.10
44982;DHT22;30716;41.740;-70.400;2022-07-09T00:04:36;22.90;52.30
44982;DHT22;30716;41.740;-70.400;2022-07-09T00:07:03;22.90;52.40
44982;DHT22;30716;41.740;-70.400;2022-07-09T00:09:29;23.00;52.60
44982;DHT22;30716;41.740;-70.400;2022-07-09T00:11:55;23.00;52.50
44982;DHT22;30716;41.740;-70.400;2022-07-09T00:14:22;23.00;52.60
44982;DHT22;30716;41.740;-70.400;2022-07-09T00:16:48;23.00;52.60
44982;DHT22;30716;41.740;-70.400;2022-07-09T00:19:15;23.00;52.70
44982;DHT22;30716;41.740;-70.400;2022-07-09T00:21:41;23.00;52.70
44982;DHT22;30716;41.740;-70.400;2022-07-09T00:24:08;23.00;52.70
44982;DHT22;30716;41.740;-70.400;2022-07-09T00:26:34;23.00;52.70
44982;DHT22;30716;41.740;-70.400;2022-07-09T00:29:00;23.10;52.80
44982;DHT22;30716;41.740;-70.400;2022-07-09T00:31:27;23.10;52.80
44982;DHT22;30716;41.740;-70.400;2022-07-09T00:33:54;23.10;52.80
44982;DHT22;30716;41.740;-70.400;2022-07-09T00:36:20;23.10;52.80
44982;DHT22;30716;41.740;-70.400;2022-07-09T00:38:46;23.00;52.70
44982;DHT22;30716;41.740;-70.400;2022-07-09T00:41:12;23.00;52.70
44982;DHT22;30716;41.740;-70.400;2022-07-09T00:43:45;23.10;52.80
44982;DHT22;30716;41.740;-70.400;2022-07-09T00:46:11;23.10;52.80
44982;DHT22;30716;41.740;-70.400;2022-07-09T00:48:37;23.10;52.70
44982;DHT22;30716;41.740;-70.400;2022-07-09T00:51:03;23.10;52.80
44982;DHT22;30716;41.740;-70.400;2022-07-09T00:53:29;23.10;52.80
44982;DHT22;30716;41.740;-70.400;2022-07-09T00:55:56;23.10;52.80
44982;DHT22;30716;41.740;-70.400;2022-07-09T00:58:23;23.10;52.70
44982;DHT22;30716;41.740;-70.400;2022-07-09T01:00:49;23.00;52.60
44982;DHT22;30716;41.740;-70.400;2022-07-09T01:03:16;23.10;53.00
44982;DHT22;30716;41.740;-70.400;2022-07-09T01:05:42;23.10;53.00
44982;DHT22;30716;41.740;-70.400;2022-07-09T01:08:09;23.10;53.00
44982;DHT22;30716;41.740;-70.400;2022-07-09T01:10:35;23.10;52.70
44982;DHT22;30716;41.740;-70.400;2022-07-09T01:13:03;23.10;52.50
44982;DHT22;30716;41.740;-70.400;2022-07-09T01:15:29;23.10;52.50
44982;DHT22;30716;41.740;-70.400;2022-07-09T01:17:55;23.10;52.50
44982;DHT22;30716;41.740;-70.400;2022-07-09T01:20:30;23.10;52.60
44982;DHT22;30716;41.740;-70.400;2022-07-09T01:22:57;23.10;52.60
44982;DHT22;30716;41.740;-70.400;2022-07-09T01:25:38;23.10;52.70
44982;DHT22;30716;41.740;-70.400;2022-07-09T01:28:06;23.20;52.70
44982;DHT22;30716;41.740;-70.400;2022-07-09T01:30:34;23.20;52.90
44982;DHT22;30716;41.740;-70.400;2022-07-09T01:33:00;23.20;52.90
44982;DHT22;30716;41.740;-70.400;2022-07-09T01:35:27;23.20;52.80
44982;DHT22;30716;41.740;-70.400;2022-07-09T01:37:53;23.20;52.70
44982;DHT22;30716;41.740;-70.400;2022-07-09T01:40:20;23.20;52.70
44982;DHT22;30716;41.740;-70.400;2022-07-09T01:42:47;23.20;52.70
44982;DHT22;30716;41.740;-70.400;2022-07-09T01:45:17;23.20;52.80
44982;DHT22;30716;41.740;-70.400;2022-07-09T01:47:43;23.20;52.80
44982;DHT22;30716;41.740;-70.400;2022-07-09T01:50:10;23.20;52.80
44982;DHT22;30716;41.740;-70.400;2022-07-09T01:52:37;23.10;52.90
44982;DHT22;30716;41.740;-70.400;2022-07-09T01:55:04;23.10;53.00
44982;DHT22;30716;41.740;-70.400;2022-07-09T01:57:30;23.10;53.00
44982;DHT22;30716;41.740;-70.400;2022-07-09T01:59:56;23.10;53.00
44982;DHT22;30716;41.740;-70.400;2022-07-09T02:02:22;23.20;53.10
44982;DHT22;30716;41.740;-70.400;2022-07-09T02:04:49;23.20;53.10
44982;DHT22;30716;41.740;-70.400;2022-07-09T02:07:15;23.20;53.10
44982;DHT22;30716;41.740;-70.400;2022-07-09T02:09:41;23.20;53.10
44982;DHT22;30716;41.740;-70.400;2022-07-09T02:12:07;23.20;53.10
44982;DHT22;30716;41.740;-70.400;2022-07-09T02:14:34;23.20;53.20
44982;DHT22;30716;41.740;-70.400;2022-07-09T02:17:00;23.20;53.50
44982;DHT22;30716;41.740;-70.400;2022-07-09T02:19:26;23.20;53.40
44982;DHT22;30716;41.740;-70.400;2022-07-09T02:21:52;23.20;53.50
44982;DHT22;30716;41.740;-70.400;2022-07-09T02:24:18;23.20;53.50
44982;DHT22;30716;41.740;-70.400;2022-07-09T02:26:45;23.20;53.40
44982;DHT22;30716;41.740;-70.400;2022-07-09T02:29:11;23.20;53.30
44982;DHT22;30716;41.740;-70.400;2022-07-09T02:31:38;23.30;53.40
44982;DHT22;30716;41.740;-70.400;2022-07-09T02:34:04;23.30;53.70
44982;DHT22;30716;41.740;-70.400;2022-07-09T02:36:30;23.20;53.60
44982;DHT22;30716;41.740;-70.400;2022-07-09T02:38:56;23.30;53.50
44982;DHT22;30716;41.740;-70.400;2022-07-09T02:41:22;23.30;53.60
44982;DHT22;30716;41.740;-70.400;2022-07-09T02:43:48;23.30;53.70
44982;DHT22;30716;41.740;-70.400;2022-07-09T02:46:14;23.20;53.60
44982;DHT22;30716;41.740;-70.400;2022-07-09T02:48:41;23.30;53.90
44982;DHT22;30716;41.740;-70.400;2022-07-09T02:51:07;23.30;54.00
44982;DHT22;30716;41.740;-70.400;2022-07-09T02:53:33;23.30;53.80
44982;DHT22;30716;41.740;-70.400;2022-07-09T02:55:59;23.30;54.00
44982;DHT22;30716;41.740;-70.400;2022-07-09T02:58:25;23.30;54.00
44982;DHT22;30716;41.740;-70.400;2022-07-09T03:00:51;23.30;54.10
44982;DHT22;30716;41.740;-70.400;2022-07-09T03:03:18;23.30;54.10
44982;DHT22;30716;41.740;-70.400;2022-07-09T03:05:44;23.30;53.90
44982;DHT22;30716;41.740;-70.400;2022-07-09T03:08:10;23.30;54.00
44982;DHT22;30716;41.740;-70.400;2022-07-09T03:10:36;23.30;53.90
44982;DHT22;30716;41.740;-70.400;2022-07-09T03:13:02;23.30;53.80
44982;DHT22;30716;41.740;-70.400;2022-07-09T03:15:28;23.30;53.70
44982;DHT22;30716;41.740;-70.400;2022-07-09T03:17:54;23.30;53.70
44982;DHT22;30716;41.740;-70.400;2022-07-09T03:20:21;23.30;53.70
44982;DHT22;30716;41.740;-70.400;2022-07-09T03:22:47;23.30;53.70
44982;DHT22;30716;41.740;-70.400;2022-07-09T03:25:13;23.30;54.50
44982;DHT22;30716;41.740;-70.400;2022-07-09T03:27:39;23.30;53.80
44982;DHT22;30716;41.740;-70.400;2022-07-09T03:30:06;23.30;53.80
44982;DHT22;30716;41.740;-70.400;2022-07-09T03:32:32;23.40;54.00
44982;DHT22;30716;41.740;-70.400;2022-07-09T03:34:59;23.40;54.00
44982;DHT22;30716;41.740;-70.400;2022-07-09T03:37:25;23.40;54.00
44982;DHT22;30716;41.740;-70.400;2022-07-09T03:39:51;23.40;54.00
44982;DHT22;30716;41.740;-70.400;2022-07-09T03:42:17;23.40;54.10
44982;DHT22;30716;41.740;-70.400;2022-07-09T03:44:43;23.40;54.20
44982;DHT22;30716;41.740;-70.400;2022-07-09T03:47:09;23.40;54.10
44982;DHT22;30716;41.740;-70.400;2022-07-09T03:49:35;23.40;54.20
44982;DHT22;30716;41.740;-70.400;2022-07-09T03:52:02;23.40;54.10
44982;DHT22;30716;41.740;-70.400;2022-07-09T03:54:28;23.40;54.30
44982;DHT22;30716;41.740;-70.400;2022-07-09T03:56:54;23.40;54.30
44982;DHT22;30716;41.740;-70.400;2022-07-09T03:59:20;23.40;54.30
44982;DHT22;30716;41.740;-70.400;2022-07-09T04:01:46;23.40;54.20
44982;DHT22;30716;41.740;-70.400;2022-07-09T04:04:13;23.40;54.20
44982;DHT22;30716;41.740;-70.400;2022-07-09T04:06:39;23.40;54.30
44982;DHT22;30716;41.740;-70.400;2022-07-09T04:09:05;23.40;54.20
44982;DHT22;30716;41.740;-70.400;2022-07-09T04:11:31;23.40;54.30
44982;DHT22;30716;41.740;-70.400;2022-07-09T04:14:01;23.40;54.20
44982;DHT22;30716;41.740;-70.400;2022-07-09T04:16:28;23.40;54.20
44982;DHT22;30716;41.740;-70.400;2022-07-09T04:18:54;23.40;54.50
44982;DHT22;30716;41.740;-70.400;2022-07-09T04:21:21;23.40;54.60
44982;DHT22;30716;41.740;-70.400;2022-07-09T04:23:50;23.40;54.60
44982;DHT22;30716;41.740;-70.400;2022-07-09T04:26:17;23.40;54.70
44982;DHT22;30716;41.740;-70.400;2022-07-09T04:28:46;23.40;54.70
44982;DHT22;30716;41.740;-70.400;2022-07-09T04:31:13;23.40;54.80
44982;DHT22;30716;41.740;-70.400;2022-07-09T04:33:39;23.40;54.70
44982;DHT22;30716;41.740;-70.400;2022-07-09T04:36:05;23.40;54.70
44982;DHT22;30716;41.740;-70.400;2022-07-09T04:38:31;23.40;54.90
44982;DHT22;30716;41.740;-70.400;2022-07-09T04:40:57;23.40;54.80
44982;DHT22;30716;41.740;-70.400;2022-07-09T04:43:23;23.50;55.00
44982;DHT22;30716;41.740;-70.400;2022-07-09T04:45:50;23.50;55.10
44982;DHT22;30716;41.740;-70.400;2022-07-09T04:48:16;23.50;55.00
44982;DHT22;30716;41.740;-70.400;2022-07-09T04:50:42;23.40;54.90
44982;DHT22;30716;41.740;-70.400;2022-07-09T04:53:08;23.50;54.90
44982;DHT22;30716;41.740;-70.400;2022-07-09T04:55:35;23.50;55.10
44982;DHT22;30716;41.740;-70.400;2022-07-09T04:58:01;23.50;55.20
44982;DHT22;30716;41.740;-70.400;2022-07-09T05:00:27;23.50;55.10
44982;DHT22;30716;41.740;-70.400;2022-07-09T05:02:53;23.50;55.10
44982;DHT22;30716;41.740;-70.400;2022-07-09T05:05:19;23.50;55.10
44982;DHT22;30716;41.740;-70.400;2022-07-09T05:07:49;23.50;55.10
44982;DHT22;30716;41.740;-70.400;2022-07-09T05:10:15;23.50;55.20
44982;DHT22;30716;41.740;-70.400;2022-07-09T05:12:41;23.50;55.10
44982;DHT22;30716;41.740;-70.400;2022-07-09T05:15:09;23.50;55.00
44982;DHT22;30716;41.740;-70.400;2022-07-09T05:17:36;23.50;55.00
44982;DHT22;30716;41.740;-70.400;2022-07-09T05:20:03;23.50;55.10
44982;DHT22;30716;41.740;-70.400;2022-07-09T05:22:35;23.50;55.10
44982;DHT22;30716;41.740;-70.400;2022-07-09T05:25:01;23.50;55.10
44982;DHT22;30716;41.740;-70.400;2022-07-09T05:27:27;23.50;55.10
44982;DHT22;30716;41.740;-70.400;2022-07-09T05:29:54;23.50;55.20
44982;DHT22;30716;41.740;-70.400;2022-07-09T05:32:20;23.50;55.20
44982;DHT22;30716;41.740;-70.400;2022-07-09T05:34:46;23.60;55.20
44982;DHT22;30716;41.740;-70.400;2022-07-09T05:37:13;23.50;55.10
44982;DHT22;30716;41.740;-70.400;2022-07-09T05:39:39;23.50;55.10
44982;DHT22;30716;41.740;-70.400;2022-07-09T05:42:05;23.50;55.10
44982;DHT22;30716;41.740;-70.400;2022-07-09T05:44:32;23.60;55.30
44982;DHT22;30716;41.740;-70.400;2022-07-09T05:46:58;23.60;55.40
44982;DHT22;30716;41.740;-70.400;2022-07-09T05:49:25;23.50;55.30
44982;DHT22;30716;41.740;-70.400;2022-07-09T05:51:51;23.60;55.30
44982;DHT22;30716;41.740;-70.400;2022-07-09T05:54:17;23.50;55.20
44982;DHT22;30716;41.740;-70.400;2022-07-09T05:56:43;23.50;54.80
44982;DHT22;30716;41.740;-70.400;2022-07-09T05:59:10;23.50;54.70
44982;DHT22;30716;41.740;-70.400;2022-07-09T06:01:36;23.50;54.70
44982;DHT22;30716;41.740;-70.400;2022-07-09T06:04:08;23.40;54.50
44982;DHT22;30716;41.740;-70.400;2022-07-09T06:06:34;23.40;54.50
44982;DHT22;30716;41.740;-70.400;2022-07-09T06:09:01;23.40;54.70
44982;DHT22;30716;41.740;-70.400;2022-07-09T06:11:27;23.40;54.80
44982;DHT22;30716;41.740;-70.400;2022-07-09T06:13:53;23.40;54.90
44982;DHT22;30716;41.740;-70.400;2022-07-09T06:16:19;23.40;55.00
44982;DHT22;30716;41.740;-70.400;2022-07-09T06:18:45;23.40;55.20
44982;DHT22;30716;41.740;-70.400;2022-07-09T06:21:12;23.40;55.20
44982;DHT22;30716;41.740;-70.400;2022-07-09T06:23:38;23.40;55.10
44982;DHT22;30716;41.740;-70.400;2022-07-09T06:26:04;23.50;55.20
44982;DHT22;30716;41.740;-70.400;2022-07-09T06:28:30;23.40;55.10
44982;DHT22;30716;41.740;-70.400;2022-07-09T06:30:56;23.40;55.00
44982;DHT22;30716;41.740;-70.400;2022-07-09T06:33:22;23.40;55.00
44982;DHT22;30716;41.740;-70.400;2022-07-09T06:35:48;23.50;55.20
44982;DHT22;30716;41.740;-70.400;2022-07-09T06:38:15;23.50;55.10
44982;DHT22;30716;41.740;-70.400;2022-07-09T06:40:41;23.50;55.20
44982;DHT22;30716;41.740;-70.400;2022-07-09T06:43:07;23.40;55.20
44982;DHT22;30716;41.740;-70.400;2022-07-09T06:45:35;23.40;55.10
44982;DHT22;30716;41.740;-70.400;2022-07-09T06:48:02;23.50;55.30
44982;DHT22;30716;41.740;-70.400;2022-07-09T06:50:28;23.50;55.30
44982;DHT22;30716;41.740;-70.400;2022-07-09T06:52:54;23.50;55.20
44982;DHT22;30716;41.740;-70.400;2022-07-09T06:55:20;23.50;55.30
44982;DHT22;30716;41.740;-70.400;2022-07-09T06:57:48;23.50;55.20
44982;DHT22;30716;41.740;-70.400;2022-07-09T07:00:14;23.40;55.10
44982;DHT22;30716;41.740;-70.400;2022-07-09T07:02:40;23.50;55.40
44982;DHT22;30716;41.740;-70.400;2022-07-09T07:05:07;23.50;55.30
44982;DHT22;30716;41.740;-70.400;2022-07-09T07:07:33;23.50;55.20
44982;DHT22;30716;41.740;-70.400;2022-07-09T07:09:59;23.50;55.40
44982;DHT22;30716;41.740;-70.400;2022-07-09T07:12:25;23.50;55.30
44982;DHT22;30716;41.740;-70.400;2022-07-09T07:14:51;23.50;55.20
44982;DHT22;30716;41.740;-70.400;2022-07-09T07:17:17;23.50;55.30
44982;DHT22;30716;41.740;-70.400;2022-07-09T07:19:44;23.50;55.30
44982;DHT22;30716;41.740;-70.400;2022-07-09T07:22:10;23.50;55.40
44982;DHT22;30716;41.740;-70.400;2022-07-09T07:24:36;23.50;55.40
44982;DHT22;30716;41.740;-70.400;2022-07-09T07:27:02;23.50;55.40
44982;DHT22;30716;41.740;-70.400;2022-07-09T07:29:28;23.50;55.40
44982;DHT22;30716;41.740;-70.400;2022-07-09T07:31:54;23.50;55.40
44982;DHT22;30716;41.740;-70.400;2022-07-09T07:34:22;23.50;55.50
44982;DHT22;30716;41.740;-70.400;2022-07-09T07:36:50;23.50;55.40
44982;DHT22;30716;41.740;-70.400;2022-07-09T07:39:17;23.50;55.50
44982;DHT22;30716;41.740;-70.400;2022-07-09T07:41:43;23.50;55.50
44982;DHT22;30716;41.740;-70.400;2022-07-09T07:44:10;23.50;55.50
44982;DHT22;30716;41.740;-70.400;2022-07-09T07:46:36;23.50;55.70
44982;DHT22;30716;41.740;-70.400;2022-07-09T07:49:02;23.50;55.70
44982;DHT22;30716;41.740;-70.400;2022-07-09T07:51:28;23.50;55.70
44982;DHT22;30716;41.740;-70.400;2022-07-09T07:53:54;23.50;55.70
44982;DHT22;30716;41.740;-70.400;2022-07-09T07:56:20;23.50;55.70
44982;DHT22;30716;41.740;-70.400;2022-07-09T07:58:46;23.50;55.80
44982;DHT22;30716;41.740;-70.400;2022-07-09T08:01:12;23.50;55.80
44982;DHT22;30716;41.740;-70.400;2022-07-09T08:03:38;23.50;55.80
44982;DHT22;30716;41.740;-70.400;2022-07-09T08:06:05;23.50;55.80
44982;DHT22;30716;41.740;-70.400;2022-07-09T08:08:33;23.60;55.90
44982;DHT22;30716;41.740;-70.400;2022-07-09T08:11:00;23.50;55.90
44982;DHT22;30716;41.740;-70.400;2022-07-09T08:13:28;23.60;55.90
44982;DHT22;30716;41.740;-70.400;2022-07-09T08:15:54;23.50;55.70
44982;DHT22;30716;41.740;-70.400;2022-07-09T08:18:21;23.60;55.80
44982;DHT22;30716;41.740;-70.400;2022-07-09T08:20:47;23.50;55.80
44982;DHT22;30716;41.740;-70.400;2022-07-09T08:23:15;23.50;55.80
44982;DHT22;30716;41.740;-70.400;2022-07-09T08:25:41;23.50;55.70
44982;DHT22;30716;41.740;-70.400;2022-07-09T08:28:07;23.50;55.80
44982;DHT22;30716;41.740;-70.400;2022-07-09T08:30:33;23.50;55.70
44982;DHT22;30716;41.740;-70.400;2022-07-09T08:32:59;23.50;55.70
44982;DHT22;30716;41.740;-70.400;2022-07-09T08:35:26;23.60;55.80
44982;DHT22;30716;41.740;-70.400;2022-07-09T08:37:52;23.50;55.80
44982;DHT22;30716;41.740;-70.400;2022-07-09T08:40:19;23.50;55.70
44982;DHT22;30716;41.740;-70.400;2022-07-09T08:42:46;23.50;55.80
44982;DHT22;30716;41.740;-70.400;2022-07-09T08:45:12;23.50;55.80
44982;DHT22;30716;41.740;-70.400;2022-07-09T08:47:39;23.50;55.80
44982;DHT22;30716;41.740;-70.400;2022-07-09T08:50:06;23.50;55.80
44982;DHT22;30716;41.740;-70.400;2022-07-09T08:52:33;23.50;55.80
44982;DHT22;30716;41.740;-70.400;2022-07-09T08:55:01;23.50;55.90
44982;DHT22;30716;41.740;-70.400;2022-07-09T08:57:27;23.50;55.90
44982;DHT22;30716;41.740;-70.400;2022-07-09T08:59:53;23.50;55.90
44982;DHT22;30716;41.740;-70.400;2022-07-09T09:02:19;23.50;55.90
44982;DHT22;30716;41.740;-70.400;2022-07-09T09:04:46;23.50;55.90
44982;DHT22;30716;41.740;-70.400;2022-07-09T09:07:16;23.50;55.80
44982;DHT22;30716;41.740;-70.400;2022-07-09T09:09:44;23.50;55.90
44982;DHT22;30716;41.740;-70.400;2022-07-09T09:12:10;23.60;56.00
44982;DHT22;30716;41.740;-70.400;2022-07-09T09:14:37;23.50;56.00
44982;DHT22;30716;41.740;-70.400;2022-07-09T09:17:11;23.50;55.90
44982;DHT22;30716;41.740;-70.400;2022-07-09T09:19:38;23.50;56.80
44982;DHT22;30716;41.740;-70.400;2022-07-09T09:22:06;23.50;56.00
44982;DHT22;30716;41.740;-70.400;2022-07-09T09:24:32;23.50;56.00
44982;DHT22;30716;41.740;-70.400;2022-07-09T09:27:00;23.50;55.90
44982;DHT22;30716;41.740;-70.400;2022-07-09T09:29:27;23.60;56.00
44982;DHT22;30716;41.740;-70.400;2022-07-09T09:31:53;23.50;56.00
44982;DHT22;30716;41.740;-70.400;2022-07-09T09:34:22;23.50;56.00
44982;DHT22;30716;41.740;-70.400;2022-07-09T09:36:52;23.50;56.00
44982;DHT22;30716;41.740;-70.400;2022-07-09T09:39:26;23.50;56.10
44982;DHT22;30716;41.740;-70.400;2022-07-09T09:41:53;23.50;56.10
44982;DHT22;30716;41.740;-70.400;2022-07-09T09:44:24;23.60;56.10
44982;DHT22;30716;41.740;-70.400;2022-07-09T09:46:52;23.60;56.10
44982;DHT22;30716;41.740;-70.400;2022-07-09T09:49:19;23.50;56.10
44982;DHT22;30716;41.740;-70.400;2022-07-09T09:52:04;23.50;56.00
44982;DHT22;30716;41.740;-70.400;2022-07-09T09:54:35;23.50;56.10
44982;DHT22;30716;41.740;-70.400;2022-07-09T09:57:08;23.50;56.20
44982;DHT22;30716;41.740;-70.400;2022-07-09T09:59:45;23.60;56.20
44982;DHT22;30716;41.740;-70.400;2022-07-09T10:02:12;23.50;56.20
44982;DHT22;30716;41.740;-70.400;2022-07-09T10:04:41;23.60;56.20
44982;DHT22;30716;41.740;-70.400;2022-07-09T10:07:09;23.50;56.10
44982;DHT22;30716;41.740;-70.400;2022-07-09T10:09:36;23.50;55.90
44982;DHT22;30716;41.740;-70.400;2022-07-09T10:12:02;23.60;55.90
44982;DHT22;30716;41.740;-70.400;2022-07-09T10:14:32;23.50;55.60
44982;DHT22;30716;41.740;-70.400;2022-07-09T10:17:15;23.50;55.60
44982;DHT22;30716;41.740;-70.400;2022-07-09T10:20:01;23.40;56.00
44982;DHT22;30716;41.740;-70.400;2022-07-09T10:22:48;23.40;55.20
44982;DHT22;30716;41.740;-70.400;2022-07-09T10:25:29;23.30;54.60
44982;DHT22;30716;41.740;-70.400;2022-07-09T10:27:55;23.30;54.50
44982;DHT22;30716;41.740;-70.400;2022-07-09T10:33:08;23.20;54.20
44982;DHT22;30716;41.740;-70.400;2022-07-09T10:35:46;23.10;54.10
44982;DHT22;30716;41.740;-70.400;2022-07-09T10:38:14;23.10;54.10
44982;DHT22;30716;41.740;-70.400;2022-07-09T10:40:42;23.10;54.20
44982;DHT22;30716;41.740;-70.400;2022-07-09T10:43:10;23.10;54.20
44982;DHT22;30716;41.740;-70.400;2022-07-09T10:45:44;23.10;54.10
44982;DHT22;30716;41.740;-70.400;2022-07-09T10:48:11;23.10;54.10
44982;DHT22;30716;41.740;-70.400;2022-07-09T10:50:42;23.10;54.10
44982;DHT22;30716;41.740;-70.400;2022-07-09T10:53:10;23.10;54.20
44982;DHT22;30716;41.740;-70.400;2022-07-09T10:55:43;23.20;54.50
44982;DHT22;30716;41.740;-70.400;2022-07-09T10:58:20;23.20;54.50
44982;DHT22;30716;41.740;-70.400;2022-07-09T11:01:00;23.20;54.50
44982;DHT22;30716;41.740;-70.400;2022-07-09T11:03:30;23.20;54.50
44982;DHT22;30716;41.740;-70.400;2022-07-09T11:05:58;23.20;54.50
44982;DHT22;30716;41.740;-70.400;2022-07-09T11:08:25;23.20;54.40
44982;DHT22;30716;41.740;-70.400;2022-07-09T11:10:51;23.10;54.20
44982;DHT22;30716;41.740;-70.400;2022-07-09T11:13:17;23.10;53.90
44982;DHT22;30716;41.740;-70.400;2022-07-09T11:15:43;23.10;53.60
44982;DHT22;30716;41.740;-70.400;2022-07-09T11:18:11;23.00;53.60
44982;DHT22;30716;41.740;-70.400;2022-07-09T11:20:46;23.00;53.70
44982;DHT22;30716;41.740;-70.400;2022-07-09T11:23:14;23.00;53.80
44982;DHT22;30716;41.740;-70.400;2022-07-09T11:25:44;23.00;53.80
44982;DHT22;30716;41.740;-70.400;2022-07-09T11:28:19;23.00;53.70
44982;DHT22;30716;41.740;-70.400;2022-07-09T11:30:46;23.00;53.80
44982;DHT22;30716;41.740;-70.400;2022-07-09T11:33:22;23.00;53.90
44982;DHT22;30716;41.740;-70.400;2022-07-09T11:35:50;23.00;53.80
44982;DHT22;30716;41.740;-70.400;2022-07-09T11:38:16;23.00;53.90
44982;DHT22;30716;41.740;-70.400;2022-07-09T11:40:42;23.00;53.70
44982;DHT22;30716;41.740;-70.400;2022-07-09T11:43:15;23.00;53.60
44982;DHT22;30716;41.740;-70.400;2022-07-09T11:45:52;23.00;53.30
44982;DHT22;30716;41.740;-70.400;2022-07-09T11:48:18;23.00;52.90
44982;DHT22;30716;41.740;-70.400;2022-07-09T11:50:45;22.90;52.70
44982;DHT22;30716;41.740;-70.400;2022-07-09T11:53:24;22.90;52.70
44982;DHT22;30716;41.740;-70.400;2022-07-09T11:56:02;22.80;52.30
44982;DHT22;30716;41.740;-70.400;2022-07-09T11:58:30;22.90;52.40
44982;DHT22;30716;41.740;-70.400;2022-07-09T12:00:56;22.80;52.20
44982;DHT22;30716;41.740;-70.400;2022-07-09T12:03:26;22.80;52.20
44982;DHT22;30716;41.740;-70.400;2022-07-09T12:05:52;22.80;52.50
44982;DHT22;30716;41.740;-70.400;2022-07-09T12:08:30;22.80;52.70
44982;DHT22;30716;41.740;-70.400;2022-07-09T12:10:58;22.80;52.70
44982;DHT22;30716;41.740;-70.400;2022-07-09T12:13:25;22.80;52.70
44982;DHT22;30716;41.740;-70.400;2022-07-09T12:15:51;22.80;52.70
44982;DHT22;30716;41.740;-70.400;2022-07-09T12:18:17;22.80;52.50
44982;DHT22;30716;41.740;-70.400;2022-07-09T12:20:43;22.80;52.70
44982;DHT22;30716;41.740;-70.400;2022-07-09T12:23:09;22.80;52.70
44982;DHT22;30716;41.740;-70.400;2022-07-09T12:25:35;22.80;52.70
44982;DHT22;30716;41.740;-70.400;2022-07-09T12:28:01;22.90;52.80
44982;DHT22;30716;41.740;-70.400;2022-07-09T12:30:28;22.80;52.70
44982;DHT22;30716;41.740;-70.400;2022-07-09T12:32:55;22.80;52.60
44982;DHT22;30716;41.740;-70.400;2022-07-09T12:35:25;22.80;52.30
44982;DHT22;30716;41.740;-70.400;2022-07-09T12:37:51;22.80;52.20
44982;DHT22;30716;41.740;-70.400;2022-07-09T12:40:18;22.70;52.00
44982;DHT22;30716;41.740;-70.400;2022-07-09T12:42:44;22.80;52.00
44982;DHT22;30716;41.740;-70.400;2022-07-09T12:45:10;22.80;52.20
44982;DHT22;30716;41.740;-70.400;2022-07-09T12:47:38;22.70;52.00
44982;DHT22;30716;41.740;-70.400;2022-07-09T12:50:05;22.80;52.40
44982;DHT22;30716;41.740;-70.400;2022-07-09T12:52:32;22.80;52.60
44982;DHT22;30716;41.740;-70.400;2022-07-09T12:55:03;22.80;52.70
44982;DHT22;30716;41.740;-70.400;2022-07-09T12:57:29;22.80;52.70
44982;DHT22;30716;41.740;-70.400;2022-07-09T12:59:56;22.80;52.70
44982;DHT22;30716;41.740;-70.400;2022-07-09T13:02:23;22.80;52.70
44982;DHT22;30716;41.740;-70.400;2022-07-09T13:04:49;22.80;52.70
44982;DHT22;30716;41.740;-70.400;2022-07-09T13:07:15;22.80;52.70
44982;DHT22;30716;41.740;-70.400;2022-07-09T13:09:41;22.80;52.70
44982;DHT22;30716;41.740;-70.400;2022-07-09T13:12:07;22.80;52.70
44982;DHT22;30716;41.740;-70.400;2022-07-09T13:14:33;22.80;52.70
44982;DHT22;30716;41.740;-70.400;2022-07-09T13:17:00;22.80;52.70
44982;DHT22;30716;41.740;-70.400;2022-07-09T13:19:26;22.90;53.10
44982;DHT22;30716;41.740;-70.400;2022-07-09T13:21:52;22.90;53.10
44982;DHT22;30716;41.740;-70.400;2022-07-09T13:24:18;22.80;53.00
44982;DHT22;30716;41.740;-70.400;2022-07-09T13:26:44;22.80;52.80
44982;DHT22;30716;41.740;-70.400;2022-07-09T13:29:10;22.80;52.70
44982;DHT22;30716;41.740;-70.400;2022-07-09T13:31:37;22.80;52.50
44982;DHT22;30716;41.740;-70.400;2022-07-09T13:34:03;22.80;52.50
44982;DHT22;30716;41.740;-70.400;2022-07-09T13:36:29;22.80;52.20
44982;DHT22;30716;41.740;-70.400;2022-07-09T13:38:56;22.70;52.30
44982;DHT22;30716;41.740;-70.400;2022-07-09T13:41:22;22.80;52.30
44982;DHT22;30716;41.740;-70.400;2022-07-09T13:43:48;22.80;52.30
44982;DHT22;30716;41.740;-70.400;2022-07-09T13:46:14;22.80;52.30
44982;DHT22;30716;41.740;-70.400;2022-07-09T13:48:41;22.80;52.10
44982;DHT22;30716;41.740;-70.400;2022-07-09T13:51:07;22.80;52.20
44982;DHT22;30716;41.740;-70.400;2022-07-09T13:53:33;22.90;52.40
44982;DHT22;30716;41.740;-70.400;2022-07-09T13:55:59;22.80;52.30
44982;DHT22;30716;41.740;-70.400;2022-07-09T13:58:26;22.90;52.50
44982;DHT22;30716;41.740;-70.400;2022-07-09T14:00:54;22.90;52.50
44982;DHT22;30716;41.740;-70.400;2022-07-09T14:03:21;22.90;52.70
44982;DHT22;30716;41.740;-70.400;2022-07-09T14:05:47;22.90;52.80
44982;DHT22;30716;41.740;-70.400;2022-07-09T14:08:13;22.90;52.80
44982;DHT22;30716;41.740;-70.400;2022-07-09T14:10:40;22.90;52.80
44982;DHT22;30716;41.740;-70.400;2022-07-09T14:13:06;22.90;52.70
44982;DHT22;30716;41.740;-70.400;2022-07-09T14:15:32;22.90;52.50
44982;DHT22;30716;41.740;-70.400;2022-07-09T14:17:59;22.90;52.60
44982;DHT22;30716;41.740;-70.400;2022-07-09T14:20:25;22.90;52.40
44982;DHT22;30716;41.740;-70.400;2022-07-09T14:22:52;22.90;52.50
44982;DHT22;30716;41.740;-70.400;2022-07-09T14:25:18;22.90;52.50
44982;DHT22;30716;41.740;-70.400;2022-07-09T14:27:44;22.90;52.60
44982;DHT22;30716;41.740;-70.400;2022-07-09T14:30:11;22.90;52.50
44982;DHT22;30716;41.740;-70.400;2022-07-09T14:32:37;22.90;52.50
44982;DHT22;30716;41.740;-70.400;2022-07-09T14:35:04;22.90;52.50
44982;DHT22;30716;41.740;-70.400;2022-07-09T14:37:30;22.90;52.50
44982;DHT22;30716;41.740;-70.400;2022-07-09T14:39:56;22.90;52.80
44982;DHT22;30716;41.740;-70.400;2022-07-09T14:42:22;22.90;52.50
44982;DHT22;30716;41.740;-70.400;2022-07-09T14:44:48;22.90;52.60
44982;DHT22;30716;41.740;-70.400;2022-07-09T14:47:17;22.90;52.50
44982;DHT22;30716;41.740;-70.400;2022-07-09T14:49:43;22.90;52.40
44982;DHT22;30716;41.740;-70.400;2022-07-09T14:52:16;22.90;52.40
44982;DHT22;30716;41.740;-70.400;2022-07-09T14:54:43;22.80;52.30
44982;DHT22;30716;41.740;-70.400;2022-07-09T14:57:09;22.90;52.20
44982;DHT22;30716;41.740;-70.400;2022-07-09T14:59:37;22.80;52.10
44982;DHT22;30716;41.740;-70.400;2022-07-09T15:02:03;22.80;52.40
44982;DHT22;30716;41.740;-70.400;2022-07-09T15:04:30;22.80;52.40
44982;DHT22;30716;41.740;-70.400;2022-07-09T15:06:56;22.80;52.20